Midland, Michigan
Current Conditions -  °F | °C
As of 11:53 AM on Tuesday 27 Jan 2015 (Local Time) from KIKW Reporting Station
Scattered Clouds Scattered Clouds  
Wind Chill: 15°   Ceiling: Unl
Heat Index: 24°   Visibility: 10mi
Dew Point: 12°   Wind: 7mph
Humidity: 62%   Direction: 50°NE
Pressure: 30.16"   Gusts: NA
Location:  43.62°N, 84.22°W
Report Text: KIKW 271653Z AUTO 05006KT 10SM SCT026 M05/M11 A3016 RMK AO2 T10471109
Loading
Personal Weather Stations






























Interactive Weather Map New forecast layout! Learn more

10-Day Weather Forecast

Advertisements
Track Severe Weather on mobile